Time;durP1;ratioP1;P1;durP2;ratioP2;P2;SDS_P1;SDS_P2;PMS_P1;PMS_P2;Temp;Humidity;BMP_temperature;BMP_pressure;BME280_temperature;BME280_humidity;BME280_pressure;Samples;Min_cycle;Max_cycle;Signal;HPM_P1;HPM_P2
2022/05/21 00:00:15;;;;;;;;;2.00;2.00;;;;;23.90;39.42;101861.47;5001418;28;45317;-58
2022/05/21 00:02:41;;;;;;;;;3.00;3.00;;;;;23.89;39.42;101865.03;5001150;28;45320;-58
2022/05/21 00:05:07;;;;;;;;;3.00;3.00;;;;;23.89;39.40;101860.63;5012196;28;47071;-58
2022/05/21 00:07:33;;;;;;;;;2.50;2.50;;;;;23.88;40.05;101855.38;5016488;28;45169;-58
2022/05/21 00:09:59;;;;;;;;;2.50;2.50;;;;;23.87;39.73;101851.03;5005469;28;45388;-58
2022/05/21 00:12:24;;;;;;;;;2.00;2.00;;;;;23.85;39.76;101855.56;4998851;28;45589;-59
2022/05/21 00:14:52;;;;;;;;;2.00;2.00;;;;;23.82;40.16;101851.28;4998749;28;47209;-57
2022/05/21 00:17:17;;;;;;;;;3.50;3.00;;;;;23.81;39.73;101856.66;4999331;28;45237;-58
2022/05/21 00:19:43;;;;;;;;;5.00;2.50;;;;;23.79;39.60;101854.13;4998185;28;45419;-59
2022/05/21 00:22:08;;;;;;;;;3.25;3.25;;;;;23.78;39.71;101858.53;4998066;28;45578;-58
2022/05/21 00:24:34;;;;;;;;;4.00;2.50;;;;;23.76;39.60;101859.56;4998903;28;46035;-61
2022/05/21 00:26:59;;;;;;;;;4.25;2.50;;;;;23.75;40.08;101861.38;4999838;28;45241;-58
2022/05/21 00:29:26;;;;;;;;;4.50;3.00;;;;;23.75;39.60;101857.84;5004878;28;45384;-58
2022/05/21 00:31:51;;;;;;;;;2.00;2.00;;;;;23.72;39.68;101864.16;5003414;28;45317;-58
2022/05/21 00:34:17;;;;;;;;;3.00;3.00;;;;;23.69;40.01;101864.31;4998776;28;46401;-59
2022/05/21 00:36:42;;;;;;;;;1.75;1.75;;;;;23.66;39.86;101863.63;4999660;28;45380;-58
2022/05/21 00:39:08;;;;;;;;;3.00;3.00;;;;;23.66;39.96;101864.47;5000794;28;45417;-58
2022/05/21 00:41:34;;;;;;;;;3.50;2.00;;;;;23.65;40.17;101865.41;4998573;28;45555;-58
2022/05/21 00:44:02;;;;;;;;;3.00;2.25;;;;;23.64;40.35;101869.03;4999027;28;47041;-57
2022/05/21 00:46:40;;;;;;;;;6.75;3.00;;;;;23.62;39.76;101862.94;4998096;28;45735;-58
2022/05/21 00:49:28;;;;;;;;;4.00;2.25;;;;;23.62;40.01;101868.22;4998542;28;45445;-57
2022/05/21 00:52:12;;;;;;;;;4.75;2.00;;;;;23.60;40.04;101856.88;4998439;28;45320;-58
2022/05/21 00:54:54;;;;;;;;;3.50;2.00;;;;;23.61;39.93;101861.22;4997848;28;46157;-58
2022/05/21 00:57:48;;;;;;;;;4.25;2.25;;;;;23.63;40.29;101864.66;5001854;28;45367;-60
2022/05/21 01:00:21;;;;;;;;;4.00;4.00;;;;;23.63;40.24;101859.38;5002364;28;45523;-59
2022/05/21 01:02:56;;;;;;;;;4.25;2.00;;;;;23.66;40.24;101863.63;4999981;28;45266;-58
2022/05/21 01:05:25;;;;;;;;;3.00;3.00;;;;;23.66;39.80;101861.00;4997178;28;45639;-57
2022/05/21 01:07:54;;;;;;;;;2.50;2.50;;;;;23.69;40.03;101861.66;4996160;28;45317;-57
2022/05/21 01:10:21;;;;;;;;;3.25;2.00;;;;;23.71;40.07;101864.22;4998848;28;45368;-57
2022/05/21 01:12:53;;;;;;;;;4.75;2.00;;;;;23.72;40.20;101853.59;4998553;28;45359;-57
2022/05/21 01:15:27;;;;;;;;;3.00;3.00;;;;;23.73;39.87;101851.78;4999785;28;46519;-58
2022/05/21 01:17:52;;;;;;;;;3.75;2.00;;;;;23.74;40.12;101867.59;4998284;28;45352;-57
2022/05/21 01:20:22;;;;;;;;;1.00;1.00;;;;;23.74;39.76;101862.31;4999801;28;45822;-56
2022/05/21 01:22:50;;;;;;;;;1.50;1.50;;;;;23.76;39.95;101862.22;4998784;28;45506;-57
2022/05/21 01:25:21;;;;;;;;;4.25;3.00;;;;;23.74;39.94;101849.06;4997812;28;45532;-57
2022/05/21 01:27:49;;;;;;;;;1.00;1.00;;;;;23.77;40.17;101856.81;4997272;28;45625;-57
2022/05/21 01:30:22;;;;;;;;;2.25;2.00;;;;;23.77;40.30;101856.81;4997679;28;45228;-58
2022/05/21 01:32:49;;;;;;;;;3.00;2.00;;;;;23.78;40.14;101858.53;5016305;28;44968;-57
2022/05/21 01:35:18;;;;;;;;;2.00;2.00;;;;;23.78;39.73;101868.28;5008324;28;45243;-59
2022/05/21 01:37:44;;;;;;;;;2.25;1.25;;;;;23.77;40.04;101856.81;5011979;28;45391;-58
2022/05/21 01:40:10;;;;;;;;;2.75;2.75;;;;;23.77;40.13;101864.75;5012362;28;45499;-57
2022/05/21 01:42:36;;;;;;;;;4.25;2.50;;;;;23.79;39.66;101856.75;5014043;28;45845;-59
2022/05/21 01:45:03;;;;;;;;;3.75;1.00;;;;;23.80;39.73;101854.94;5016859;28;46491;-57
2022/05/21 01:47:31;;;;;;;;;2.50;2.50;;;;;23.77;40.18;101854.16;5011954;28;45331;-58
2022/05/21 01:49:57;;;;;;;;;2.50;2.50;;;;;23.79;39.68;101862.06;5005440;28;45281;-56
2022/05/21 01:52:22;;;;;;;;;2.50;2.50;;;;;23.78;40.18;101863.81;5001997;28;45430;-57
2022/05/21 01:54:48;;;;;;;;;2.00;2.00;;;;;23.79;40.10;101854.13;5004320;28;45325;-58
2022/05/21 01:57:13;;;;;;;;;2.75;2.00;;;;;23.76;39.92;101849.81;5001735;28;46046;-58
2022/05/21 01:59:39;;;;;;;;;2.00;2.00;;;;;23.80;39.64;101857.59;5002361;28;45326;-57
2022/05/21 02:02:05;;;;;;;;;3.25;1.25;;;;;23.80;39.92;101853.19;5009503;28;45379;-57
2022/05/21 02:04:31;;;;;;;;;1.75;1.75;;;;;23.81;39.74;101846.06;5017413;28;46877;-57
2022/05/21 02:06:56;;;;;;;;;4.25;2.00;;;;;23.80;39.90;101844.38;5013083;28;45158;-57
2022/05/21 02:09:22;;;;;;;;;4.00;2.50;;;;;23.80;39.88;101847.88;5005882;28;45744;-61
2022/05/21 02:11:48;;;;;;;;;3.00;1.25;;;;;23.76;40.30;101836.59;5001566;28;45217;-58
2022/05/21 02:14:13;;;;;;;;;1.75;1.75;;;;;23.77;40.06;101846.22;5000559;28;47361;-58
2022/05/21 02:16:39;;;;;;;;;2.25;2.25;;;;;23.79;39.97;101843.53;4999316;28;45257;-57
2022/05/21 02:19:06;;;;;;;;;2.50;2.00;;;;;23.77;39.73;101848.88;5001109;28;45198;-57
2022/05/21 02:21:34;;;;;;;;;3.00;3.00;;;;;23.78;39.84;101853.25;5000988;28;45440;-58
2022/05/21 02:24:00;;;;;;;;;3.00;2.25;;;;;23.77;40.35;101850.69;5000697;28;45508;-57
2022/05/21 02:26:25;;;;;;;;;1.25;1.25;;;;;23.76;39.73;101848.97;5000711;28;45420;-57
2022/05/21 02:28:51;;;;;;;;;1.50;1.00;;;;;23.78;40.38;101852.41;5001003;28;45773;-58
2022/05/21 02:31:17;;;;;;;;;3.00;2.00;;;;;23.78;40.25;101853.25;5001742;28;45753;-57
2022/05/21 02:33:43;;;;;;;;;4.00;3.00;;;;;23.77;40.01;101854.16;4999901;28;46376;-60
2022/05/21 02:36:09;;;;;;;;;7.00;2.00;;;;;23.78;40.12;101847.94;5002827;28;45166;-57
2022/05/21 02:41:18;;;;;;;;;3.00;3.00;;;;;23.76;39.68;101855.09;5007147;28;45361;-57
2022/05/21 02:43:44;;;;;;;;;3.00;1.00;;;;;23.75;39.99;101853.44;4998125;28;46642;-59
2022/05/21 02:46:14;;;;;;;;;4.75;4.00;;;;;23.75;39.80;101849.91;5001094;28;45241;-57
2022/05/21 02:48:40;;;;;;;;;2.50;2.50;;;;;23.75;39.82;101850.78;5002152;28;45392;-58
2022/05/21 02:51:08;;;;;;;;;2.00;2.00;;;;;23.74;39.44;101856.13;5001080;28;45277;-59
2022/05/21 02:53:34;;;;;;;;;1.50;1.50;;;;;23.74;39.76;101859.66;5004481;28;45534;-58
2022/05/21 02:56:08;;;;;;;;;1.00;1.00;;;;;23.72;39.75;101863.28;5008194;28;45422;-57
2022/05/21 02:58:33;;;;;;;;;3.00;2.00;;;;;23.72;39.56;101869.47;5018034;28;44691;-58
2022/05/21 03:00:59;;;;;;;;;4.00;2.25;;;;;23.72;39.86;101868.59;5018101;28;45320;-56
2022/05/21 03:03:24;;;;;;;;;4.00;2.00;;;;;23.73;39.44;101865.88;5019626;28;45385;-58
2022/05/21 03:05:50;;;;;;;;;2.50;2.00;;;;;23.73;39.77;101865.88;5015710;28;45213;-58
2022/05/21 03:10:59;;;;;;;;;2.25;2.00;;;;;23.73;39.75;101855.28;5003724;28;45257;-59
2022/05/21 03:13:25;;;;;;;;;2.50;2.50;;;;;23.72;39.86;101858.88;5008351;28;46389;-58
2022/05/21 03:15:51;;;;;;;;;2.25;2.25;;;;;23.73;39.42;101871.19;5001110;28;45800;-58
2022/05/21 03:18:17;;;;;;;;;2.00;2.00;;;;;23.73;39.63;101865.88;5000428;28;45609;-58
2022/05/21 03:20:43;;;;;;;;;2.00;2.00;;;;;23.73;39.43;101865.00;4999416;28;45570;-58
2022/05/21 03:23:09;;;;;;;;;3.00;2.50;;;;;23.72;39.93;101869.47;5000274;28;47043;-59
2022/05/21 03:25:36;;;;;;;;;2.00;2.00;;;;;23.73;39.50;101857.94;5000360;28;45257;-59
2022/05/21 03:28:03;;;;;;;;;3.00;2.00;;;;;23.72;39.95;101871.22;5002836;28;45229;-61
2022/05/21 03:30:30;;;;;;;;;3.75;3.00;;;;;23.71;39.89;101866.88;5000443;28;45623;-60
2022/05/21 03:32:56;;;;;;;;;2.00;2.00;;;;;23.69;39.85;101866.97;5010835;28;45491;-58
2022/05/21 03:35:22;;;;;;;;;3.00;3.00;;;;;23.70;39.96;101868.69;5011520;28;44659;-60
2022/05/21 03:37:49;;;;;;;;;3.00;3.00;;;;;23.71;39.56;101872.16;5012368;28;45336;-59
2022/05/21 03:40:19;;;;;;;;;4.00;2.25;;;;;23.71;39.56;101867.75;5001142;28;45471;-58
2022/05/21 03:42:45;;;;;;;;;2.50;2.00;;;;;23.72;39.65;101868.59;5000900;28;45492;-62
2022/05/21 03:45:11;;;;;;;;;2.00;2.00;;;;;23.71;39.68;101853.63;5001622;28;45182;-64
2022/05/21 03:47:38;;;;;;;;;2.00;2.00;;;;;23.72;39.50;101848.28;5004158;28;45242;-58
2022/05/21 03:50:04;;;;;;;;;5.25;2.75;;;;;23.73;39.54;101854.41;5002268;28;45657;-59
2022/05/21 03:52:29;;;;;;;;;3.00;3.00;;;;;23.72;39.26;101863.28;4999608;28;45430;-60
2022/05/21 03:54:55;;;;;;;;;3.00;3.00;;;;;23.73;39.38;101865.00;4981385;28;45332;-62
2022/05/21 03:57:22;;;;;;;;;3.00;2.00;;;;;23.71;39.29;101873.03;5003612;28;45388;-63
2022/05/21 03:59:47;;;;;;;;;2.00;1.25;;;;;23.73;39.64;101875.59;5014831;28;44952;-61
2022/05/21 04:02:12;;;;;;;;;4.00;2.00;;;;;23.73;39.29;101868.53;5021955;28;45003;-58
2022/05/21 04:04:38;;;;;;;;;2.25;2.25;;;;;23.74;39.35;101872.88;5007795;28;45222;-56
2022/05/21 04:07:05;;;;;;;;;2.50;2.50;;;;;23.74;39.70;101872.88;5000057;28;45218;-58
2022/05/21 04:09:31;;;;;;;;;1.75;1.75;;;;;23.73;39.68;101868.53;4999795;28;45234;-58
2022/05/21 04:11:56;;;;;;;;;2.00;2.00;;;;;23.73;39.17;101871.19;4999854;28;45344;-58
2022/05/21 04:14:27;;;;;;;;;2.25;2.25;;;;;23.73;39.55;101865.88;4999150;28;45497;-58
2022/05/21 04:16:55;;;;;;;;;2.25;2.00;;;;;23.73;39.64;101865.00;5003399;28;45321;-58
2022/05/21 04:19:20;;;;;;;;;1.00;1.00;;;;;23.73;39.33;101871.19;5002296;28;45429;-58
2022/05/21 04:21:46;;;;;;;;;2.50;2.00;;;;;23.72;39.28;101864.16;5009304;28;46256;-58
2022/05/21 04:24:11;;;;;;;;;2.00;2.00;;;;;23.70;39.07;101878.44;4999153;28;47352;-57
2022/05/21 04:26:36;;;;;;;;;2.25;2.25;;;;;23.68;39.12;101870.53;4999194;28;45776;-57
2022/05/21 04:29:02;;;;;;;;;1.75;1.75;;;;;23.68;39.27;101883.78;5009806;28;45200;-59
2022/05/21 04:31:27;;;;;;;;;1.00;1.00;;;;;23.66;38.97;101875.06;5014011;28;45552;-59
2022/05/21 04:33:52;;;;;;;;;2.00;2.00;;;;;23.66;39.46;101869.75;5020339;28;44750;-58
2022/05/21 04:36:18;;;;;;;;;4.00;2.00;;;;;23.65;38.83;101869.84;5019757;28;44770;-61
2022/05/21 04:38:43;;;;;;;;;1.25;1.25;;;;;23.63;38.91;101870.78;5019688;28;44789;-58
2022/05/21 04:41:08;;;;;;;;;3.00;2.00;;;;;23.60;38.88;101864.81;5001134;28;47125;-58
2022/05/21 04:43:34;;;;;;;;;1.00;1.00;;;;;23.60;38.90;101870.94;4999244;28;45361;-58
2022/05/21 04:45:59;;;;;;;;;3.50;1.75;;;;;23.61;38.61;101877.09;5002246;28;45343;-57
2022/05/21 04:48:24;;;;;;;;;3.00;2.25;;;;;23.54;38.18;101881.00;4998928;28;45536;-58
2022/05/21 04:50:50;;;;;;;;;4.00;2.50;;;;;23.38;38.55;101855.34;4999132;28;45331;-58
2022/05/21 04:53:15;;;;;;;;;2.00;1.75;;;;;23.27;37.65;101860.31;4999507;28;48926;-58
2022/05/21 04:55:41;;;;;;;;;3.00;3.00;;;;;23.06;38.23;101865.72;5000095;28;45384;-57
2022/05/21 04:58:07;;;;;;;;;2.25;2.25;;;;;22.97;38.30;101868.84;4998949;28;45546;-58
2022/05/21 05:00:33;;;;;;;;;3.25;2.00;;;;;22.83;38.30;101870.38;4998751;28;45407;-59
2022/05/21 05:02:58;;;;;;;;;2.50;2.50;;;;;22.72;38.34;101870.03;4999990;28;45674;-59
2022/05/21 05:05:24;;;;;;;;;3.75;3.00;;;;;22.60;38.60;101860.91;5000511;28;45453;-59
2022/05/21 05:07:49;;;;;;;;;3.25;2.25;;;;;22.57;38.68;101857.53;5002652;28;45594;-59
2022/05/21 05:10:15;;;;;;;;;4.75;2.00;;;;;22.51;38.72;101858.69;5007403;28;45830;-57
2022/05/21 05:12:41;;;;;;;;;3.00;2.00;;;;;22.41;39.35;101858.28;5008181;28;45373;-58
2022/05/21 05:15:07;;;;;;;;;3.75;3.75;;;;;22.30;39.45;101855.28;5006019;28;45191;-58
2022/05/21 05:17:33;;;;;;;;;4.00;4.00;;;;;22.20;40.23;101868.03;5005583;28;45549;-58
2022/05/21 05:20:00;;;;;;;;;4.00;4.00;;;;;22.16;40.29;101858.56;5013208;28;45644;-57
2022/05/21 05:22:25;;;;;;;;;5.25;3.75;;;;;22.14;40.55;101860.41;5012208;28;45702;-56
2022/05/21 05:24:51;;;;;;;;;6.50;4.75;;;;;22.03;40.79;101863.53;5012021;28;45252;-57
2022/05/21 05:27:16;;;;;;;;;5.00;4.00;;;;;21.88;41.60;101858.00;5012680;28;45377;-58
2022/05/21 05:29:42;;;;;;;;;8.50;4.00;;;;;21.81;41.85;101853.09;5012842;28;45758;-55
2022/05/21 05:32:07;;;;;;;;;7.00;6.00;;;;;21.77;42.22;101853.22;5008231;28;45275;-60
2022/05/21 05:34:33;;;;;;;;;5.75;5.00;;;;;21.69;41.83;101854.47;5008597;28;45257;-58
2022/05/21 05:37:00;;;;;;;;;5.00;4.25;;;;;21.64;42.16;101852.03;5009988;28;45310;-59
2022/05/21 05:39:26;;;;;;;;;4.25;4.25;;;;;21.62;42.06;101862.69;5009605;28;46155;-57
2022/05/21 05:41:51;;;;;;;;;5.00;4.00;;;;;21.59;42.24;101860.16;5009841;28;45229;-57
2022/05/21 05:44:17;;;;;;;;;6.00;4.50;;;;;21.54;42.05;101855.97;5007497;28;45245;-56
2022/05/21 05:46:42;;;;;;;;;4.50;4.25;;;;;21.49;42.43;101856.19;5007250;28;45505;-56
2022/05/21 05:49:08;;;;;;;;;4.00;4.00;;;;;21.44;42.10;101860.81;5005655;28;46552;-56
2022/05/21 05:51:34;;;;;;;;;4.00;4.00;;;;;21.42;42.51;101868.78;5000551;28;45303;-57
2022/05/21 05:53:59;;;;;;;;;4.00;3.75;;;;;21.40;42.26;101862.69;5003095;28;45364;-57
2022/05/21 05:56:25;;;;;;;;;5.00;4.25;;;;;21.38;42.72;101868.97;5001852;28;45321;-57
2022/05/21 06:01:34;;;;;;;;;4.50;4.50;;;;;21.26;42.77;101873.84;5014504;28;45392;-56
2022/05/21 06:04:00;;;;;;;;;5.00;5.00;;;;;21.24;43.01;101872.19;5006664;28;44803;-57
2022/05/21 06:06:25;;;;;;;;;6.25;4.00;;;;;21.22;43.00;101866.97;5006121;28;45290;-56
2022/05/21 06:08:51;;;;;;;;;4.00;4.00;;;;;21.23;42.78;101873.97;5002280;28;46069;-55
2022/05/21 06:11:17;;;;;;;;;2.50;2.50;;;;;21.30;42.89;101879.84;5001155;28;45381;-57
2022/05/21 06:13:44;;;;;;;;;5.00;4.50;;;;;21.36;43.03;101869.06;5000950;28;45321;-56
2022/05/21 06:16:09;;;;;;;;;3.25;3.00;;;;;21.38;42.45;101872.47;5003692;28;45367;-51
2022/05/21 06:18:34;;;;;;;;;4.00;4.00;;;;;21.41;42.41;101872.34;5018333;28;45659;-53
2022/05/21 06:21:01;;;;;;;;;4.75;3.00;;;;;21.45;42.54;101875.69;5009039;28;45320;-54
2022/05/21 06:23:27;;;;;;;;;4.75;3.25;;;;;21.48;42.60;101872.94;5000571;28;45229;-56
2022/05/21 06:25:53;;;;;;;;;3.25;3.25;;;;;21.52;42.82;101871.88;5000003;28;45434;-57
2022/05/21 06:28:18;;;;;;;;;5.00;3.00;;;;;21.46;43.08;101875.66;4999984;28;45686;-57
2022/05/21 06:30:45;;;;;;;;;2.50;2.25;;;;;21.39;42.85;101873.31;5000315;28;45413;-57
2022/05/21 06:33:18;;;;;;;;;4.00;4.00;;;;;21.31;43.09;101871.88;5000638;28;45258;-56
2022/05/21 06:35:48;;;;;;;;;2.00;2.00;;;;;21.27;43.29;101869.44;5001082;28;45290;-57
2022/05/21 06:38:14;;;;;;;;;5.00;2.00;;;;;21.34;43.38;101870.88;5003399;28;46785;-56
2022/05/21 06:40:40;;;;;;;;;4.50;3.00;;;;;21.41;43.01;101861.78;5001732;28;45605;-55
2022/05/21 06:43:06;;;;;;;;;3.25;3.25;;;;;21.52;43.05;101868.38;5004206;28;52663;-56
2022/05/21 06:45:33;;;;;;;;;4.00;3.25;;;;;21.59;42.95;101865.44;5007717;28;45236;-57
2022/05/21 06:48:03;;;;;;;;;3.00;3.00;;;;;21.66;43.09;101868.66;5018085;28;47173;-56
2022/05/21 06:50:28;;;;;;;;;3.50;3.50;;;;;21.68;42.57;101868.59;5006168;28;45803;-56
2022/05/21 06:52:54;;;;;;;;;3.25;3.00;;;;;21.73;42.77;101866.63;5009211;28;45621;-56
2022/05/21 06:55:21;;;;;;;;;4.00;2.00;;;;;21.78;42.55;101864.63;5005937;28;45201;-56
2022/05/21 06:57:47;;;;;;;;;3.75;2.00;;;;;21.83;42.22;101861.81;5003624;28;47304;-57
2022/05/21 07:00:13;;;;;;;;;3.00;2.00;;;;;21.85;42.21;101859.94;5001352;28;45346;-57
2022/05/21 07:02:40;;;;;;;;;2.00;2.00;;;;;21.91;41.95;101864.94;5000874;28;45353;-59
2022/05/21 07:07:49;;;;;;;;;1.00;1.00;;;;;21.88;41.50;101870.34;5001243;28;45666;-57
2022/05/21 07:10:21;;;;;;;;;2.00;2.00;;;;;21.91;41.28;101876.34;5002029;28;45355;-56
2022/05/21 07:12:48;;;;;;;;;2.00;2.00;;;;;21.95;40.98;101876.22;4999424;28;45284;-57
2022/05/21 07:15:14;;;;;;;;;2.75;2.00;;;;;21.99;41.04;101877.81;4999308;28;45594;-57
2022/05/21 07:17:39;;;;;;;;;1.00;1.00;;;;;22.01;40.69;101882.09;4999693;28;45499;-57
2022/05/21 07:20:08;;;;;;;;;3.50;2.00;;;;;22.05;41.21;101878.34;5001703;28;45385;-56
2022/05/21 07:22:33;;;;;;;;;5.00;1.75;;;;;22.01;40.86;101875.94;5005047;28;45735;-54
2022/05/21 07:25:01;;;;;;;;;3.25;2.00;;;;;22.01;40.96;101871.53;5001313;28;45241;-53
2022/05/21 07:27:27;;;;;;;;;3.00;1.25;;;;;22.05;40.76;101875.72;4999214;28;45573;-55
2022/05/21 07:29:53;;;;;;;;;1.00;1.00;;;;;22.12;40.99;101883.38;5000478;28;45905;-55
2022/05/21 07:32:22;;;;;;;;;3.00;2.00;;;;;22.16;40.68;101880.53;4999747;28;45403;-55
2022/05/21 07:34:48;;;;;;;;;3.50;3.50;;;;;22.21;40.70;101877.66;5001362;28;45559;-54
2022/05/21 07:37:14;;;;;;;;;2.25;2.00;;;;;22.27;40.62;101879.16;4995173;28;45506;-56
2022/05/21 07:39:40;;;;;;;;;2.50;2.00;;;;;22.30;40.44;101885.16;4997636;28;45677;-56
2022/05/21 07:42:06;;;;;;;;;2.00;2.00;;;;;22.29;40.47;101864.97;4997656;28;45421;-56
2022/05/21 07:44:31;;;;;;;;;3.25;2.00;;;;;22.37;40.58;101877.81;4997667;28;45290;-56
2022/05/21 07:46:57;;;;;;;;;2.75;2.00;;;;;22.41;40.36;101879.44;5012335;28;47331;-56
2022/05/21 07:49:23;;;;;;;;;2.00;2.00;;;;;22.46;40.48;101879.22;4996956;28;45503;-55
2022/05/21 07:51:49;;;;;;;;;7.75;2.00;;;;;22.47;40.48;101873.84;4997311;28;45340;-56
2022/05/21 07:54:14;;;;;;;;;3.50;3.00;;;;;22.51;40.05;101880.69;4997338;28;45643;-57
2022/05/21 07:56:39;;;;;;;;;2.25;2.25;;;;;22.52;40.14;101873.63;4997209;28;46099;-54
2022/05/21 07:59:05;;;;;;;;;3.25;1.00;;;;;22.51;40.08;101874.56;4996964;28;45348;-57
2022/05/21 08:01:30;;;;;;;;;3.00;2.00;;;;;22.53;39.97;101877.97;4997268;28;45394;-55
2022/05/21 08:03:55;;;;;;;;;2.25;2.00;;;;;22.52;39.63;101874.50;4997457;28;45534;-54
2022/05/21 08:06:21;;;;;;;;;1.75;1.75;;;;;22.49;39.60;101869.34;4996762;28;46447;-53
2022/05/21 08:08:48;;;;;;;;;2.50;2.00;;;;;22.49;39.57;101874.63;4995528;28;45363;-55
2022/05/21 08:11:13;;;;;;;;;2.00;2.00;;;;;22.51;39.46;101871.91;4997015;28;45296;-53
2022/05/21 08:13:39;;;;;;;;;2.00;2.00;;;;;22.48;39.46;101867.63;4997220;28;45222;-54
2022/05/21 08:16:05;;;;;;;;;3.25;2.00;;;;;22.48;39.43;101865.00;4996370;28;46429;-54
2022/05/21 08:18:31;;;;;;;;;2.00;2.00;;;;;22.49;39.44;101866.72;4995612;28;45328;-52
2022/05/21 08:20:57;;;;;;;;;3.00;1.00;;;;;22.52;39.33;101866.56;4996919;28;45326;-54
2022/05/21 08:28:50;;;;;;;;;1.50;1.25;;;;;22.52;38.83;101858.66;4996671;28;45259;-55
2022/05/21 08:31:17;;;;;;;;;1.25;1.25;;;;;22.50;38.73;101860.50;4996973;28;45265;-54
2022/05/21 08:33:42;;;;;;;;;4.00;2.00;;;;;22.51;38.92;101863.97;4997213;28;45495;-55
2022/05/21 12:38:18;;;;;;;;;3.75;2.00;;;;;24.02;38.25;101658.75;4996714;28;45356;-54
2022/05/21 12:40:54;;;;;;;;;4.00;2.25;;;;;24.02;38.25;101651.66;4994941;28;45310;-54
2022/05/21 12:43:20;;;;;;;;;4.00;2.25;;;;;24.03;38.13;101650.69;4997630;28;45374;-55
2022/05/21 12:45:53;;;;;;;;;4.75;3.00;;;;;24.06;38.53;101657.59;4997633;28;45374;-53
2022/05/21 12:48:35;;;;;;;;;2.75;2.75;;;;;24.07;37.85;101656.66;4998173;28;46398;-53
2022/05/21 12:51:08;;;;;;;;;2.00;2.00;;;;;24.07;38.04;101657.53;4998065;28;45770;-57
2022/05/21 12:53:49;;;;;;;;;1.75;1.75;;;;;24.07;38.31;101648.72;5000180;28;45511;-51
2022/05/21 12:56:18;;;;;;;;;2.00;2.00;;;;;24.07;37.83;101652.25;4998910;28;45633;-57
2022/05/21 12:58:43;;;;;;;;;3.25;3.25;;;;;24.07;37.72;101646.06;4998148;28;46399;-58
2022/05/21 13:01:22;;;;;;;;;2.00;2.00;;;;;24.09;37.30;101642.38;4998083;28;45303;-49
2022/05/21 13:03:48;;;;;;;;;2.00;2.00;;;;;24.09;37.64;101631.81;4998076;28;45359;-49
2022/05/21 13:06:21;;;;;;;;;2.00;2.00;;;;;24.11;37.71;101630.84;4997890;28;45262;-52
2022/05/21 13:08:50;;;;;;;;;2.50;2.50;;;;;24.12;37.97;101632.56;4998435;28;45490;-54
2022/05/21 13:11:20;;;;;;;;;2.00;2.00;;;;;24.12;37.77;101638.75;5011530;28;45737;-52
2022/05/21 13:13:57;;;;;;;;;2.00;2.00;;;;;24.13;37.73;101626.34;4996304;28;45565;-51
2022/05/21 13:16:23;;;;;;;;;2.00;2.00;;;;;24.14;37.39;101623.63;4995634;28;45814;-49
2022/05/21 13:19:38;;;;;;;;;2.00;2.00;;;;;24.15;37.90;101619.16;4989436;28;46347;-51
2022/05/21 13:22:32;;;;;;;;;1.50;1.50;;;;;24.15;37.85;101616.50;4935633;28;45823;-50
2022/05/21 13:24:57;;;;;;;;;3.00;3.00;;;;;24.16;37.87;101623.50;4935380;28;45713;-50
2022/05/21 13:27:24;;;;;;;;;3.00;2.00;;;;;24.15;37.85;101613.84;4962588;28;45422;-52
2022/05/21 13:29:52;;;;;;;;;2.00;2.00;;;;;24.17;37.37;101619.94;4979475;28;45664;-50
2022/05/21 13:32:30;;;;;;;;;2.75;2.75;;;;;24.16;37.43;101611.09;4979757;28;45261;-55
2022/05/21 13:35:02;;;;;;;;;3.00;3.00;;;;;24.16;37.58;101607.63;4994896;28;45390;-53
2022/05/21 13:37:28;;;;;;;;;3.75;3.00;;;;;24.16;37.53;101604.97;4999737;28;45182;-50
2022/05/21 13:40:12;;;;;;;;;2.00;2.00;;;;;24.14;37.24;101607.72;4998713;28;46913;-60
2022/05/21 13:42:41;;;;;;;;;5.50;3.00;;;;;24.15;37.57;101603.25;4999310;28;45580;-57
2022/05/21 13:45:28;;;;;;;;;2.00;2.00;;;;;24.16;38.00;101603.16;4998733;28;45859;-57
2022/05/21 13:48:00;;;;;;;;;3.00;3.00;;;;;24.15;37.97;101592.66;4999415;28;45403;-50
2022/05/21 13:50:29;;;;;;;;;5.00;3.00;;;;;24.16;37.58;101587.28;4998976;28;45329;-51
2022/05/21 13:52:56;;;;;;;;;2.75;2.75;;;;;24.16;37.97;101581.97;4999071;28;45456;-47
2022/05/21 13:55:22;;;;;;;;;6.00;3.00;;;;;24.17;37.42;101582.84;4999381;28;45354;-50
2022/05/21 13:57:48;;;;;;;;;4.00;2.00;;;;;24.18;37.70;101581.91;4999190;28;45186;-46
2022/05/21 14:00:20;;;;;;;;;2.75;1.75;;;;;24.19;37.82;101583.63;5014168;28;48153;-46
2022/05/21 14:02:49;;;;;;;;;2.50;2.00;;;;;24.18;37.49;101576.59;4998634;28;45849;-52
2022/05/21 14:05:27;;;;;;;;;2.75;2.75;;;;;24.19;37.73;101575.66;4999184;28;45322;-50
2022/05/21 14:08:10;;;;;;;;;4.75;3.00;;;;;24.16;37.26;101560.78;4998705;28;45494;-48
2022/05/21 14:10:38;;;;;;;;;2.25;2.25;;;;;24.21;37.65;101561.38;4998798;28;46334;-51
2022/05/21 14:13:06;;;;;;;;;1.50;1.50;;;;;24.19;37.70;101562.44;4999120;28;45690;-49
2022/05/21 14:15:37;;;;;;;;;2.50;2.50;;;;;24.21;37.23;101563.16;4998887;28;45388;-45
2022/05/21 14:18:05;;;;;;;;;3.50;3.00;;;;;24.21;36.98;101563.16;4999273;28;45304;-51
2022/05/21 14:20:36;;;;;;;;;2.00;2.00;;;;;24.20;37.56;101556.16;4998981;28;45717;-48
2022/05/21 14:23:21;;;;;;;;;3.00;2.75;;;;;24.21;37.34;101553.44;4999348;28;45381;-53
2022/05/21 14:25:47;;;;;;;;;3.00;3.00;;;;;24.20;37.58;101548.22;4997749;28;45323;-47
2022/05/21 14:28:23;;;;;;;;;2.75;2.75;;;;;24.21;37.06;101547.28;4997796;28;45516;-48
2022/05/21 14:30:52;;;;;;;;;3.25;2.75;;;;;24.21;37.73;101541.97;4998511;28;46911;-49
2022/05/21 14:33:21;;;;;;;;;2.75;2.75;;;;;24.21;37.53;101542.84;4998688;28;45732;-49
2022/05/21 14:35:48;;;;;;;;;3.75;2.75;;;;;24.21;37.58;101534.03;4998970;28;45514;-47
2022/05/21 14:38:20;;;;;;;;;3.00;3.00;;;;;24.22;37.35;101525.13;4999019;28;45233;-55
2022/05/21 14:40:58;;;;;;;;;2.00;2.00;;;;;24.24;37.53;101520.59;4996833;28;46378;-46
2022/05/21 14:43:26;;;;;;;;;2.25;2.25;;;;;24.23;37.75;101517.13;4998415;28;45371;-48
2022/05/21 14:45:52;;;;;;;;;3.75;2.25;;;;;24.24;37.32;101518.81;4998616;28;45237;-50
2022/05/21 14:48:17;;;;;;;;;3.00;3.00;;;;;24.24;37.43;101516.19;4999048;28;45314;-47
2022/05/21 14:53:34;;;;;;;;;2.25;2.25;;;;;24.27;37.20;101515.13;4998537;28;45327;-48
2022/05/21 14:56:02;;;;;;;;;3.75;2.00;;;;;24.27;37.35;101506.31;4998625;28;45190;-47
2022/05/21 14:58:28;;;;;;;;;2.25;2.25;;;;;24.28;37.29;101515.97;4997534;28;45579;-47
2022/05/21 15:00:53;;;;;;;;;4.00;3.00;;;;;24.28;37.26;101511.53;4998029;28;46577;-51
2022/05/21 15:03:19;;;;;;;;;3.00;3.00;;;;;24.27;37.46;101512.47;4998121;28;45369;-49
2022/05/21 15:05:48;;;;;;;;;4.00;3.00;;;;;24.27;37.07;101499.25;4998515;28;45483;-49
2022/05/21 15:08:18;;;;;;;;;3.00;2.75;;;;;24.28;37.21;101500.06;4998421;28;45537;-49
2022/05/21 15:10:45;;;;;;;;;2.00;2.00;;;;;24.28;37.31;101502.72;4998178;28;46456;-54
2022/05/21 15:13:10;;;;;;;;;2.50;2.00;;;;;24.28;37.28;101500.94;4998224;28;45350;-51
2022/05/21 15:15:36;;;;;;;;;3.00;2.50;;;;;24.23;37.71;101492.41;4998674;28;45359;-49
2022/05/21 15:18:01;;;;;;;;;3.00;3.00;;;;;24.26;37.61;101494.88;4998426;28;45296;-53
2022/05/21 15:20:26;;;;;;;;;3.00;3.00;;;;;24.26;37.59;101491.38;4997958;28;47501;-48
2022/05/21 15:22:52;;;;;;;;;2.00;2.00;;;;;24.26;36.96;101481.63;4998060;28;45447;-52
2022/05/21 15:25:20;;;;;;;;;3.00;3.00;;;;;24.28;37.04;101478.88;4998089;28;45440;-49
2022/05/21 15:27:47;;;;;;;;;3.00;3.00;;;;;24.27;37.36;101474.53;4998272;28;45190;-52
2022/05/21 15:30:15;;;;;;;;;5.00;3.00;;;;;24.27;37.12;101467.44;4996636;28;47824;-52
2022/05/21 15:32:41;;;;;;;;;2.00;2.00;;;;;24.26;37.47;101468.38;4997799;28;45779;-56
2022/05/21 15:35:08;;;;;;;;;3.00;2.00;;;;;24.26;36.85;101460.44;4998389;28;45364;-57
2022/05/21 15:37:34;;;;;;;;;3.00;3.00;;;;;24.27;36.87;101463.94;4998188;28;45232;-54
2022/05/21 15:40:00;;;;;;;;;3.00;3.00;;;;;24.26;36.71;101468.38;4997745;28;46576;-54
2022/05/21 15:42:25;;;;;;;;;4.00;4.00;;;;;24.26;36.65;101468.38;4997686;28;45246;-54
2022/05/21 15:44:52;;;;;;;;;3.00;3.00;;;;;24.27;36.72;101461.28;4997906;28;45248;-59
2022/05/21 15:47:18;;;;;;;;;3.00;2.75;;;;;24.26;37.10;101454.28;4997904;28;45216;-53